createdAt,value
2018-05-03T00:00:15.346Z,8.43
2018-05-03T00:02:42.198Z,8.23
2018-05-03T00:05:09.142Z,7.37
2018-05-03T00:07:35.987Z,10.90
2018-05-03T00:10:02.961Z,12.33
2018-05-03T00:12:29.980Z,8.47
2018-05-03T00:14:57.038Z,8.87
2018-05-03T00:17:23.873Z,9.23
2018-05-03T00:19:50.820Z,7.90
2018-05-03T00:22:17.777Z,11.17
2018-05-03T00:24:46.255Z,11.90
2018-05-03T00:27:13.108Z,8.97
2018-05-03T00:29:40.196Z,9.87
2018-05-03T00:32:08.236Z,6.40
2018-05-03T00:34:35.041Z,8.70
2018-05-03T00:37:02.012Z,8.87
2018-05-03T00:39:29.081Z,11.10
2018-05-03T00:41:55.891Z,7.77
2018-05-03T00:44:22.863Z,9.17
2018-05-03T00:46:49.809Z,10.87
2018-05-03T00:49:16.667Z,10.03
2018-05-03T00:51:43.433Z,10.13
2018-05-03T00:54:23.034Z,10.83
2018-05-03T00:56:49.982Z,8.47
2018-05-03T00:59:16.927Z,6.53
2018-05-03T01:01:43.877Z,7.83
2018-05-03T01:04:10.923Z,11.27
2018-05-03T01:06:37.984Z,7.57
2018-05-03T01:09:05.033Z,11.37
2018-05-03T01:11:31.969Z,11.40
2018-05-03T01:13:58.818Z,11.37
2018-05-03T01:16:25.764Z,10.63
2018-05-03T01:18:52.821Z,7.07
2018-05-03T01:21:19.655Z,7.27
2018-05-03T01:23:46.511Z,7.77
2018-05-03T01:26:13.322Z,10.00
2018-05-03T01:28:40.193Z,8.30
2018-05-03T01:31:07.148Z,10.63
2018-05-03T01:33:34.906Z,8.00
2018-05-03T01:36:13.961Z,6.67
2018-05-03T01:38:40.885Z,8.13
2018-05-03T01:41:07.840Z,10.20
2018-05-03T01:43:34.803Z,6.87
2018-05-03T01:46:01.726Z,8.93
2018-05-03T01:48:28.669Z,6.93
2018-05-03T01:50:55.723Z,9.60
2018-05-03T01:53:22.668Z,7.70
2018-05-03T01:55:49.742Z,12.80
2018-05-03T01:58:17.486Z,6.50
2018-05-03T02:00:44.327Z,7.53
2018-05-03T02:03:11.381Z,9.00
2018-05-03T02:05:38.436Z,8.47
2018-05-03T02:08:05.271Z,6.17
2018-05-03T02:10:32.284Z,10.13
2018-05-03T02:13:00.112Z,9.60
2018-05-03T02:15:27.049Z,7.27
2018-05-03T02:17:54.009Z,12.27
2018-05-03T02:20:20.904Z,10.07
2018-05-03T02:22:47.919Z,7.63
2018-05-03T02:25:22.411Z,8.23
2018-05-03T02:27:49.247Z,11.40
2018-05-03T02:30:16.207Z,8.47
2018-05-03T02:32:43.145Z,8.73
2018-05-03T02:35:10.201Z,8.67
2018-05-03T02:37:37.271Z,11.13
2018-05-03T02:40:05.017Z,11.83
2018-05-03T02:42:32.111Z,9.30
2018-05-03T02:44:59.977Z,9.23
2018-05-03T02:47:27.797Z,10.77
2018-05-03T02:49:54.858Z,10.60
2018-05-03T02:52:21.794Z,9.93
2018-05-03T02:54:48.846Z,13.00
2018-05-03T02:57:27.984Z,11.47
2018-05-03T03:00:07.219Z,8.80
2018-05-03T03:02:52.485Z,9.33
2018-05-03T03:05:37.561Z,8.70
2018-05-03T03:12:00.453Z,5.97
2018-05-03T03:14:45.511Z,8.77
2018-05-03T03:17:30.977Z,7.50
2018-05-03T03:20:30.615Z,6.53
2018-05-03T03:23:15.577Z,12.43
2018-05-03T03:26:11.926Z,8.37
2018-05-03T03:28:56.988Z,10.50
2018-05-03T03:31:50.765Z,10.57
2018-05-03T03:34:24.396Z,8.50
2018-05-03T03:37:25.619Z,8.17
2018-05-03T03:40:11.107Z,7.30
2018-05-03T03:45:49.029Z,7.43
2018-05-03T03:48:16.088Z,5.47
2018-05-03T03:50:43.044Z,7.27
2018-05-03T03:53:09.987Z,6.73
2018-05-03T03:55:37.612Z,7.40
2018-05-03T03:58:04.596Z,5.43
2018-05-03T04:00:31.649Z,8.27
2018-05-03T04:02:58.582Z,8.07
2018-05-03T04:05:25.438Z,8.20
2018-05-03T04:07:52.273Z,10.23
2018-05-03T04:10:19.324Z,9.93
2018-05-03T04:12:46.268Z,5.10
2018-05-03T04:15:13.110Z,6.17
2018-05-03T04:17:52.152Z,8.40
2018-05-03T04:20:39.787Z,8.57
2018-05-03T04:26:05.108Z,12.50
2018-05-03T04:28:32.054Z,9.10
2018-05-03T04:30:59.114Z,9.23
2018-05-03T04:33:26.154Z,7.23
2018-05-03T04:35:53.000Z,6.43
2018-05-03T04:38:19.772Z,5.60
2018-05-03T04:40:48.843Z,6.00
2018-05-03T04:43:15.795Z,7.70
2018-05-03T04:45:42.736Z,7.07
2018-05-03T04:48:09.691Z,7.60
2018-05-03T04:50:36.501Z,8.80
2018-05-03T04:53:03.477Z,7.47
2018-05-03T04:55:30.435Z,5.93
2018-05-03T04:57:58.123Z,9.67
2018-05-03T05:00:25.761Z,9.07
2018-05-03T05:02:52.799Z,8.33
2018-05-03T05:05:19.745Z,9.67
2018-05-03T05:07:46.801Z,7.43
2018-05-03T05:10:13.785Z,6.67
2018-05-03T05:12:41.532Z,7.67
2018-05-03T05:15:09.180Z,6.63
2018-05-03T05:17:36.018Z,8.10
2018-05-03T05:20:03.166Z,7.07
2018-05-03T05:22:30.124Z,8.10
2018-05-03T05:24:57.063Z,6.83
2018-05-03T05:27:24.007Z,6.10
2018-05-03T05:29:50.853Z,9.60
2018-05-03T05:32:17.679Z,7.60
2018-05-03T05:34:44.564Z,9.80
2018-05-03T05:37:11.594Z,9.07
2018-05-03T05:39:38.540Z,7.23
2018-05-03T05:42:05.394Z,7.13
2018-05-03T05:44:32.342Z,8.83
2018-05-03T05:46:59.285Z,7.37
2018-05-03T05:49:26.362Z,7.57
2018-05-03T05:51:53.185Z,9.43
2018-05-03T05:54:20.121Z,4.63
2018-05-03T05:56:47.114Z,6.47
2018-05-03T05:59:14.846Z,11.03
2018-05-03T06:01:41.886Z,8.30
2018-05-03T06:04:08.839Z,12.90
2018-05-03T06:06:35.819Z,9.33
2018-05-03T06:09:03.543Z,6.47
2018-05-03T06:11:30.595Z,8.83
2018-05-03T06:13:58.373Z,8.00
2018-05-03T06:16:25.306Z,8.90
2018-05-03T06:18:52.006Z,10.20
2018-05-03T06:21:19.724Z,7.63
2018-05-03T06:23:46.625Z,8.87
2018-05-03T06:26:13.713Z,11.47
2018-05-03T06:28:40.557Z,6.27
2018-05-03T06:31:07.401Z,9.33
2018-05-03T06:33:34.346Z,8.80
2018-05-03T06:36:01.407Z,7.17
2018-05-03T06:38:28.347Z,7.03
2018-05-03T06:40:55.404Z,6.00
2018-05-03T06:43:22.342Z,8.37
2018-05-03T06:45:50.116Z,5.37
2018-05-03T06:48:17.166Z,7.60
2018-05-03T06:50:44.103Z,5.60
2018-05-03T06:53:10.948Z,6.37
2018-05-03T06:55:37.906Z,4.73
2018-05-03T06:58:04.947Z,7.60
2018-05-03T07:00:32.609Z,7.80
2018-05-03T07:02:59.555Z,5.07
2018-05-03T07:05:26.507Z,6.87
2018-05-03T07:07:53.461Z,8.57
2018-05-03T07:10:21.934Z,8.50
2018-05-03T07:12:48.994Z,6.80
2018-05-03T07:15:16.038Z,6.60
2018-05-03T07:17:42.981Z,6.70
2018-05-03T07:20:09.937Z,7.27
2018-05-03T07:22:36.874Z,6.60
2018-05-03T07:25:03.928Z,7.07
2018-05-03T07:27:31.693Z,6.57
2018-05-03T07:29:58.756Z,5.13
2018-05-03T07:32:25.898Z,6.60
2018-05-03T07:34:52.911Z,6.40
2018-05-03T07:37:20.503Z,5.30
2018-05-03T07:39:47.461Z,11.00
2018-05-03T07:42:14.510Z,7.33
2018-05-03T07:44:41.450Z,6.60
2018-05-03T07:47:08.405Z,7.60
2018-05-03T07:49:35.342Z,7.90
2018-05-03T07:52:02.403Z,6.43
2018-05-03T07:54:29.338Z,8.63
2018-05-03T07:56:56.183Z,6.10
2018-05-03T07:59:23.143Z,11.80
2018-05-03T08:01:50.119Z,8.57
2018-05-03T08:04:17.761Z,11.63
2018-05-03T08:06:44.663Z,8.83
2018-05-03T08:09:11.551Z,8.30
2018-05-03T08:11:39.215Z,6.50
2018-05-03T08:14:06.115Z,12.43
2018-05-03T08:16:33.051Z,9.40
2018-05-03T08:18:59.969Z,7.83
2018-05-03T08:21:27.603Z,9.43
2018-05-03T08:23:54.460Z,12.60
2018-05-03T08:26:21.222Z,7.93
2018-05-03T08:28:48.827Z,10.50
2018-05-03T08:31:15.647Z,9.57
2018-05-03T08:33:43.319Z,10.53
2018-05-03T08:36:10.467Z,9.63
2018-05-03T08:38:38.278Z,8.30
2018-05-03T08:41:05.124Z,8.67
2018-05-03T08:43:32.075Z,14.43
2018-05-03T08:45:59.128Z,12.90
2018-05-03T08:48:25.969Z,12.43
2018-05-03T08:50:52.923Z,10.67
2018-05-03T08:53:19.860Z,9.00
2018-05-03T08:55:46.796Z,9.20
2018-05-03T08:58:14.470Z,9.50
2018-05-03T09:00:41.535Z,8.53
2018-05-03T09:03:08.576Z,11.27
2018-05-03T09:05:35.722Z,9.30
2018-05-03T09:08:02.781Z,8.33
2018-05-03T09:10:29.824Z,9.33
2018-05-03T09:12:56.882Z,9.90
2018-05-03T09:15:42.456Z,7.57
2018-05-03T09:18:09.407Z,10.93
2018-05-03T09:20:36.619Z,9.60
2018-05-03T09:23:03.615Z,5.47
2018-05-03T09:25:30.553Z,9.93
2018-05-03T09:27:57.717Z,6.50
2018-05-03T09:30:24.755Z,6.20
2018-05-03T09:32:51.813Z,7.40
2018-05-03T09:35:18.773Z,5.67
2018-05-03T09:37:45.593Z,8.07
2018-05-03T09:40:12.553Z,9.00
2018-05-03T09:42:39.639Z,8.00
2018-05-03T09:45:07.471Z,10.40
2018-05-03T09:47:34.303Z,11.20
2018-05-03T09:50:01.251Z,9.23
2018-05-03T09:52:28.226Z,6.23
2018-05-03T09:54:55.869Z,7.43
2018-05-03T09:57:22.811Z,8.73
2018-05-03T09:59:49.763Z,7.47
2018-05-03T10:02:16.705Z,5.60
2018-05-03T10:04:43.673Z,5.83
2018-05-03T10:07:10.705Z,5.63
2018-05-03T10:09:37.648Z,5.17
2018-05-03T10:12:04.708Z,8.07
2018-05-03T10:14:41.149Z,5.57
2018-05-03T10:17:08.115Z,3.70
2018-05-03T10:19:34.961Z,6.27
2018-05-03T10:22:02.012Z,4.63
2018-05-03T10:24:28.971Z,5.73
2018-05-03T10:26:55.803Z,4.67
2018-05-03T10:29:22.651Z,6.53
2018-05-03T10:31:49.596Z,3.83
2018-05-03T10:34:16.444Z,5.10
2018-05-03T10:36:43.387Z,7.20
2018-05-03T10:39:10.438Z,6.70
2018-05-03T10:41:37.383Z,6.50
2018-05-03T10:44:04.436Z,4.17
2018-05-03T10:46:31.495Z,2.87
2018-05-03T10:48:58.548Z,4.83
2018-05-03T10:51:25.518Z,6.50
2018-05-03T10:53:53.255Z,4.13
2018-05-03T10:56:20.297Z,4.23
2018-05-03T10:58:47.356Z,5.73
2018-05-03T11:01:14.294Z,4.33
2018-05-03T11:03:41.342Z,4.70
2018-05-03T11:06:08.389Z,5.73
2018-05-03T11:08:35.341Z,4.50
2018-05-03T11:11:02.225Z,5.23
2018-05-03T11:13:29.846Z,4.33
2018-05-03T11:16:02.780Z,4.87
2018-05-03T11:18:30.616Z,4.33
2018-05-03T11:20:57.551Z,2.73
2018-05-03T11:23:24.497Z,5.57
2018-05-03T11:25:51.505Z,4.70
2018-05-03T11:28:19.220Z,3.67
2018-05-03T11:30:46.270Z,6.23
2018-05-03T11:33:13.313Z,4.70
2018-05-03T11:35:40.172Z,6.23
2018-05-03T11:38:07.113Z,4.27
2018-05-03T11:40:34.153Z,4.33
2018-05-03T11:43:01.934Z,5.60
2018-05-03T11:45:28.976Z,5.23
2018-05-03T11:47:55.939Z,4.83
2018-05-03T11:50:23.682Z,8.93
2018-05-03T11:52:50.652Z,4.87
2018-05-03T11:55:17.686Z,5.30
2018-05-03T11:57:44.729Z,6.83
2018-05-03T12:00:11.780Z,6.17
2018-05-03T12:02:38.828Z,7.07
2018-05-03T12:05:05.775Z,8.13
2018-05-03T12:07:32.718Z,5.87
2018-05-03T12:09:59.567Z,4.50
2018-05-03T12:12:26.613Z,3.93
2018-05-03T12:17:54.443Z,5.77
2018-05-03T12:20:22.172Z,9.43
2018-05-03T12:22:49.128Z,5.20
2018-05-03T12:25:16.170Z,3.57
2018-05-03T12:27:43.013Z,6.10
2018-05-03T12:30:09.860Z,5.80
2018-05-03T12:32:36.743Z,3.40
2018-05-03T12:35:04.579Z,4.43
2018-05-03T12:37:31.515Z,5.70
2018-05-03T12:40:05.539Z,4.63
2018-05-03T12:42:32.488Z,9.37
2018-05-03T12:44:59.537Z,6.00
2018-05-03T12:47:26.373Z,8.10
2018-05-03T12:49:53.219Z,5.47
2018-05-03T12:52:20.172Z,6.63
2018-05-03T12:54:47.216Z,4.87
2018-05-03T12:57:14.271Z,4.43
2018-05-03T12:59:41.322Z,8.27
2018-05-03T13:02:08.270Z,9.57
2018-05-03T13:04:35.216Z,6.97
2018-05-03T13:07:09.127Z,6.07
2018-05-03T13:09:35.938Z,7.20
2018-05-03T13:12:02.921Z,9.00
2018-05-03T13:14:40.234Z,7.03
2018-05-03T13:17:07.999Z,7.73
2018-05-03T13:19:35.741Z,7.53
2018-05-03T13:22:02.682Z,9.33
2018-05-03T13:24:29.526Z,9.70
2018-05-03T13:27:11.216Z,7.17
2018-05-03T13:29:38.166Z,5.90
2018-05-03T13:32:05.223Z,9.63
2018-05-03T13:34:32.327Z,11.20
2018-05-03T13:36:59.937Z,8.50
2018-05-03T13:39:26.980Z,5.77
2018-05-03T13:41:54.029Z,6.57
2018-05-03T13:44:21.079Z,6.53
2018-05-03T13:46:47.920Z,8.93
2018-05-03T13:49:14.768Z,6.50
2018-05-03T13:51:41.817Z,6.23
2018-05-03T13:54:08.659Z,8.90
2018-05-03T13:56:35.504Z,6.10
2018-05-03T13:59:02.557Z,9.47
2018-05-03T14:01:29.505Z,8.20
2018-05-03T14:03:56.467Z,11.03
2018-05-03T14:06:23.407Z,6.53
2018-05-03T14:08:50.456Z,7.70
2018-05-03T14:11:17.393Z,7.53
2018-05-03T14:13:44.343Z,7.40
2018-05-03T14:16:37.766Z,7.83
2018-05-03T14:19:04.871Z,11.63
2018-05-03T14:21:32.026Z,8.30
2018-05-03T14:23:58.968Z,10.57
2018-05-03T14:26:26.009Z,9.90
2018-05-03T14:28:52.851Z,8.70
2018-05-03T14:31:19.801Z,8.87
2018-05-03T14:33:46.874Z,9.33
2018-05-03T14:36:14.113Z,9.10
2018-05-03T14:38:41.155Z,8.70
2018-05-03T14:41:08.633Z,8.57
2018-05-03T14:43:35.671Z,5.73
2018-05-03T14:46:02.620Z,8.00
2018-05-03T14:48:29.377Z,9.93
2018-05-03T14:50:57.951Z,11.80
2018-05-03T14:53:24.998Z,9.33
2018-05-03T14:55:51.937Z,9.07
2018-05-03T14:58:18.880Z,7.53
2018-05-03T15:00:45.935Z,7.67
2018-05-03T15:03:12.990Z,6.43
2018-05-03T15:05:40.032Z,8.57
2018-05-03T15:08:07.019Z,8.57
2018-05-03T15:10:34.765Z,9.07
2018-05-03T15:13:02.622Z,8.63
2018-05-03T15:18:32.759Z,10.67
2018-05-03T15:20:59.705Z,9.50
2018-05-03T15:23:26.552Z,7.17
2018-05-03T15:25:53.499Z,7.30
2018-05-03T15:28:20.340Z,7.43
2018-05-03T15:30:47.290Z,6.87
2018-05-03T15:33:14.040Z,6.43
2018-05-03T15:35:40.979Z,8.07
2018-05-03T15:38:08.031Z,4.33
2018-05-03T15:40:35.191Z,5.50
2018-05-03T15:43:02.130Z,4.47
2018-05-03T15:45:29.073Z,3.87
2018-05-03T15:47:56.031Z,3.20
2018-05-03T15:50:22.771Z,5.47
2018-05-03T15:52:49.816Z,3.60
2018-05-03T15:55:16.634Z,3.30
2018-05-03T15:57:44.320Z,2.23
2018-05-03T16:00:11.479Z,2.40
2018-05-03T16:02:38.426Z,2.10
2018-05-03T16:05:05.243Z,2.00
2018-05-03T16:07:32.393Z,3.07
2018-05-03T16:10:00.084Z,2.10
2018-05-03T16:12:27.041Z,2.80
2018-05-03T16:15:08.554Z,2.77
2018-05-03T16:17:36.286Z,2.57
2018-05-03T16:20:03.342Z,4.10
2018-05-03T16:22:30.289Z,2.43
2018-05-03T16:24:57.341Z,2.03
2018-05-03T16:27:24.490Z,3.27
2018-05-03T16:29:51.438Z,1.87
2018-05-03T16:32:18.483Z,1.60
2018-05-03T16:34:45.416Z,1.50
2018-05-03T16:37:12.381Z,1.60
2018-05-03T16:39:39.326Z,2.33
2018-05-03T16:42:06.270Z,3.40
2018-05-03T16:44:33.223Z,2.03
2018-05-03T16:47:00.983Z,1.93
2018-05-03T16:49:27.816Z,2.83
2018-05-03T16:51:54.889Z,3.23
2018-05-03T16:54:21.936Z,3.10
2018-05-03T16:56:48.873Z,3.07
2018-05-03T16:59:16.007Z,1.30
2018-05-03T17:01:42.981Z,2.87
2018-05-03T17:04:09.894Z,1.90
2018-05-03T17:06:36.744Z,2.83
2018-05-03T17:09:03.617Z,3.13
2018-05-03T17:11:30.918Z,1.93
2018-05-03T17:13:57.910Z,2.37
2018-05-03T17:19:31.536Z,4.33
2018-05-03T17:21:58.497Z,6.43
2018-05-03T17:24:25.305Z,3.67
2018-05-03T17:26:52.287Z,3.03
2018-05-03T17:29:19.332Z,6.03
2018-05-03T17:31:46.109Z,5.17
2018-05-03T17:34:13.848Z,7.40
2018-05-03T17:36:40.888Z,3.47
2018-05-03T17:39:15.014Z,4.57
2018-05-03T17:41:41.986Z,5.67
2018-05-03T17:44:09.604Z,4.73
2018-05-03T17:46:36.480Z,4.50
2018-05-03T17:49:03.311Z,7.17
2018-05-03T17:51:30.029Z,6.43
2018-05-03T17:53:56.800Z,4.50
2018-05-03T17:56:23.587Z,4.47
2018-05-03T17:58:50.427Z,5.17
2018-05-03T18:01:17.259Z,4.60
2018-05-03T18:03:44.847Z,4.37
2018-05-03T18:06:12.628Z,4.60
2018-05-03T18:08:39.437Z,4.47
2018-05-03T18:11:06.965Z,4.23
2018-05-03T18:13:33.773Z,5.50
2018-05-03T18:19:15.158Z,5.50
2018-05-03T18:21:42.067Z,6.10
2018-05-03T18:24:08.940Z,4.53
2018-05-03T18:26:36.570Z,6.47
2018-05-03T18:29:03.420Z,3.63
2018-05-03T18:31:31.825Z,2.10
2018-05-03T18:33:59.479Z,3.27
2018-05-03T18:36:27.140Z,4.60
2018-05-03T18:38:54.735Z,3.13
2018-05-03T18:41:21.526Z,1.80
2018-05-03T18:43:48.441Z,2.60
2018-05-03T18:46:15.219Z,2.27
2018-05-03T18:48:42.056Z,3.00
2018-05-03T18:51:08.782Z,3.53
2018-05-03T18:53:35.862Z,2.37
2018-05-03T18:56:02.964Z,3.80
2018-05-03T18:58:30.559Z,1.90
2018-05-03T19:00:57.470Z,3.13
2018-05-03T19:03:24.324Z,3.30
2018-05-03T19:05:52.121Z,4.33
2018-05-03T19:08:18.964Z,4.47
2018-05-03T19:10:45.752Z,4.67
2018-05-03T19:13:13.319Z,4.77
2018-05-03T19:18:46.152Z,6.67
2018-05-03T19:21:12.967Z,4.87
2018-05-03T19:23:40.523Z,7.33
2018-05-03T19:26:08.143Z,5.23
2018-05-03T19:28:35.002Z,7.07
2018-05-03T19:31:01.911Z,6.63
2018-05-03T19:33:28.626Z,6.43
2018-05-03T19:35:56.243Z,6.83
2018-05-03T19:38:23.116Z,4.73
2018-05-03T19:40:51.829Z,4.10
2018-05-03T19:43:19.386Z,4.67
2018-05-03T19:45:46.962Z,9.00
2018-05-03T19:48:13.751Z,4.73
2018-05-03T19:50:40.604Z,7.33
2018-05-03T19:53:07.456Z,6.80
2018-05-03T19:55:34.530Z,7.63
2018-05-03T19:58:01.353Z,8.00
2018-05-03T20:00:28.248Z,8.17
2018-05-03T20:02:55.026Z,9.90
2018-05-03T20:05:21.920Z,11.17
2018-05-03T20:07:49.504Z,14.30
2018-05-03T20:10:16.308Z,11.93
2018-05-03T20:12:43.899Z,11.57
2018-05-03T20:18:08.298Z,19.60
2018-05-03T20:20:35.705Z,12.13
2018-05-03T20:23:03.549Z,15.00
2018-05-03T20:25:40.661Z,16.37
2018-05-03T20:31:26.276Z,15.03
2018-05-03T20:33:53.140Z,17.63
2018-05-03T20:36:20.664Z,10.67
2018-05-03T20:38:47.530Z,22.03
2018-05-03T20:41:14.388Z,11.93
2018-05-03T20:43:41.912Z,13.53
2018-05-03T20:48:42.875Z,12.43
2018-05-03T20:51:09.698Z,10.80
2018-05-03T20:53:36.538Z,16.27
2018-05-03T20:56:03.338Z,11.83
2018-05-03T20:58:30.952Z,12.70
2018-05-03T21:00:57.761Z,15.90
2018-05-03T21:03:25.308Z,9.97
2018-05-03T21:05:53.053Z,16.07
2018-05-03T21:08:19.990Z,13.37
2018-05-03T21:10:46.936Z,16.37
2018-05-03T21:13:14.000Z,11.50
2018-05-03T21:18:44.479Z,12.30
2018-05-03T21:21:12.217Z,13.63
2018-05-03T21:23:39.268Z,13.03
2018-05-03T21:26:06.280Z,11.37
2018-05-03T21:28:33.972Z,14.47
2018-05-03T21:31:01.606Z,10.53
2018-05-03T21:33:28.428Z,10.10
2018-05-03T21:35:56.039Z,16.50
2018-05-03T21:38:22.805Z,15.07
2018-05-03T21:40:51.583Z,14.20
2018-05-03T21:43:25.371Z,13.90
2018-05-03T21:45:53.566Z,12.57
2018-05-03T21:48:20.400Z,11.30
2018-05-03T21:50:47.480Z,13.80
2018-05-03T21:53:15.423Z,16.20
2018-05-03T21:55:44.353Z,17.20
2018-05-03T21:58:11.922Z,12.63
2018-05-03T22:00:39.904Z,11.00
2018-05-03T22:03:06.823Z,10.20
2018-05-03T22:05:33.641Z,10.27
2018-05-03T22:08:00.821Z,11.40
2018-05-03T22:10:27.944Z,11.53
2018-05-03T22:12:54.826Z,9.37
2018-05-03T22:15:22.363Z,10.97
2018-05-03T22:17:49.106Z,8.90
2018-05-03T22:20:15.925Z,10.40
2018-05-03T22:22:42.681Z,8.43
2018-05-03T22:25:09.434Z,8.90
2018-05-03T22:27:36.240Z,4.63
2018-05-03T22:30:03.106Z,8.40
2018-05-03T22:32:30.680Z,5.57
2018-05-03T22:34:57.495Z,5.63
2018-05-03T22:37:24.245Z,5.13
2018-05-03T22:39:51.130Z,7.00
2018-05-03T22:42:17.967Z,6.77
2018-05-03T22:44:44.799Z,4.53
2018-05-03T22:47:11.682Z,7.73
2018-05-03T22:49:39.395Z,8.67
2018-05-03T22:52:06.199Z,6.60
2018-05-03T22:54:33.839Z,7.33
2018-05-03T22:57:00.656Z,8.07
2018-05-03T22:59:27.443Z,6.10
2018-05-03T23:01:55.062Z,4.17
2018-05-03T23:04:21.891Z,7.03
2018-05-03T23:06:48.879Z,7.70
2018-05-03T23:09:15.763Z,6.27
2018-05-03T23:11:42.546Z,4.30
2018-05-03T23:14:09.415Z,6.87
2018-05-03T23:16:36.351Z,6.63
2018-05-03T23:19:03.208Z,5.67
2018-05-03T23:21:30.048Z,5.50
2018-05-03T23:23:56.963Z,5.27
2018-05-03T23:26:23.827Z,6.90
2018-05-03T23:28:50.983Z,3.47
2018-05-03T23:31:17.918Z,3.60
2018-05-03T23:33:45.085Z,5.53
2018-05-03T23:36:13.365Z,2.90
2018-05-03T23:38:40.407Z,2.80
2018-05-03T23:41:07.258Z,2.00
2018-05-03T23:43:34.189Z,5.60
2018-05-03T23:46:02.069Z,3.40
2018-05-03T23:48:29.118Z,3.07
2018-05-03T23:50:56.057Z,3.10
2018-05-03T23:53:22.900Z,2.40
2018-05-03T23:55:51.703Z,3.53
2018-05-03T23:58:18.742Z,3.40
